createdAt,value
2022-10-22T00:02:07.852Z,11.60
2022-10-22T00:04:36.289Z,11.60
2022-10-22T00:07:05.830Z,11.60
2022-10-22T00:09:36.231Z,11.50
2022-10-22T00:12:04.742Z,11.50
2022-10-22T00:14:32.904Z,11.50
2022-10-22T00:17:01.843Z,11.60
2022-10-22T00:19:30.253Z,11.50
2022-10-22T00:21:59.154Z,11.60
2022-10-22T00:24:31.064Z,11.60
2022-10-22T00:26:59.444Z,11.60
2022-10-22T00:29:27.611Z,11.60
2022-10-22T00:31:58.112Z,11.60
2022-10-22T00:34:26.865Z,11.70
2022-10-22T00:36:57.523Z,11.70
2022-10-22T00:39:27.118Z,11.70
2022-10-22T00:41:58.275Z,11.60
2022-10-22T00:45:18.230Z,11.70
2022-10-22T00:47:51.689Z,11.70
2022-10-22T00:50:25.658Z,11.70
2022-10-22T00:52:57.215Z,11.80
2022-10-22T00:55:29.674Z,11.70
2022-10-22T00:58:02.407Z,11.70
2022-10-22T01:00:30.624Z,11.70
2022-10-22T01:02:59.443Z,11.70
2022-10-22T01:05:31.972Z,11.70
2022-10-22T01:08:02.184Z,11.70
2022-10-22T01:10:44.704Z,11.70
2022-10-22T01:13:27.055Z,11.70
2022-10-22T01:16:07.349Z,11.70
2022-10-22T01:18:42.845Z,11.70
2022-10-22T01:21:24.143Z,11.70
2022-10-22T01:24:20.389Z,11.80
2022-10-22T01:27:01.267Z,11.80
2022-10-22T01:29:35.006Z,11.90
2022-10-22T01:32:08.016Z,11.90
2022-10-22T01:34:37.655Z,11.90
2022-10-22T01:37:05.897Z,12.00
2022-10-22T01:39:37.830Z,12.00
2022-10-22T01:42:05.933Z,12.00
2022-10-22T01:47:18.098Z,12.00
2022-10-22T01:50:36.371Z,11.90
2022-10-22T01:53:18.666Z,11.90
2022-10-22T01:56:02.567Z,11.90
2022-10-22T01:58:43.663Z,11.90
2022-10-22T02:01:19.632Z,11.90
2022-10-22T02:03:55.262Z,11.90
2022-10-22T02:06:28.234Z,11.80
2022-10-22T02:08:57.582Z,11.80
2022-10-22T02:11:25.656Z,11.80
2022-10-22T02:13:57.748Z,11.80
2022-10-22T02:16:30.430Z,11.80
2022-10-22T02:19:07.740Z,11.70
2022-10-22T02:21:38.229Z,11.70
2022-10-22T02:24:07.446Z,11.70
2022-10-22T02:26:43.722Z,11.70
2022-10-22T02:29:15.973Z,11.60
2022-10-22T02:31:47.862Z,11.60
2022-10-22T02:34:20.555Z,11.60
2022-10-22T02:36:50.578Z,11.60
2022-10-22T02:39:21.700Z,11.60
2022-10-22T02:41:50.026Z,11.50
2022-10-22T02:44:23.138Z,11.50
2022-10-22T02:46:54.689Z,11.50
2022-10-22T02:49:22.944Z,11.50
2022-10-22T02:51:51.050Z,11.50
2022-10-22T02:54:19.394Z,11.40
2022-10-22T02:56:47.460Z,11.40
2022-10-22T02:59:15.512Z,11.30
2022-10-22T03:01:45.764Z,11.30
2022-10-22T03:04:15.207Z,11.30
2022-10-22T03:06:45.692Z,11.30
2022-10-22T03:09:13.738Z,11.30
2022-10-22T03:11:44.150Z,11.20
2022-10-22T03:14:14.454Z,11.20
2022-10-22T03:16:42.551Z,11.20
2022-10-22T03:19:10.683Z,11.20
2022-10-22T03:21:46.756Z,11.10
2022-10-22T03:24:18.529Z,11.10
2022-10-22T03:26:49.619Z,11.10
2022-10-22T03:29:17.948Z,11.10
2022-10-22T03:31:46.050Z,11.00
2022-10-22T03:34:16.946Z,11.00
2022-10-22T03:36:46.689Z,11.00
2022-10-22T03:39:17.219Z,10.90
2022-10-22T03:41:46.006Z,10.90
2022-10-22T03:44:17.926Z,10.90
2022-10-22T03:46:46.247Z,10.90
2022-10-22T03:49:14.316Z,10.80
2022-10-22T03:51:46.124Z,10.80
2022-10-22T03:54:14.215Z,10.80
2022-10-22T03:56:42.371Z,10.80
2022-10-22T03:59:10.467Z,10.70
2022-10-22T04:01:40.899Z,10.70
2022-10-22T04:04:09.315Z,10.70
2022-10-22T04:06:37.407Z,10.60
2022-10-22T04:09:06.952Z,10.60
2022-10-22T04:11:35.113Z,10.60
2022-10-22T04:14:03.179Z,10.50
2022-10-22T04:16:32.719Z,10.50
2022-10-22T04:19:00.960Z,10.50
2022-10-22T04:21:29.079Z,10.50
2022-10-22T04:23:59.262Z,10.40
2022-10-22T04:26:28.946Z,10.40
2022-10-22T04:28:59.045Z,10.40
2022-10-22T04:31:29.552Z,10.40
2022-10-22T04:33:59.106Z,10.40
2022-10-22T04:36:30.648Z,10.30
2022-10-22T04:39:01.923Z,10.30
2022-10-22T04:41:32.916Z,10.30
2022-10-22T04:44:03.592Z,10.20
2022-10-22T04:46:34.911Z,10.20
2022-10-22T04:49:04.723Z,10.20
2022-10-22T04:51:33.548Z,10.20
2022-10-22T04:54:03.769Z,10.20
2022-10-22T04:56:35.507Z,10.10
2022-10-22T04:59:08.023Z,10.10
2022-10-22T05:01:41.712Z,10.10
2022-10-22T05:04:14.051Z,10.10
2022-10-22T05:06:42.334Z,10.10
2022-10-22T05:09:14.657Z,10.00
2022-10-22T05:11:48.308Z,10.00
2022-10-22T05:14:18.561Z,10.00
2022-10-22T05:16:48.439Z,10.00
2022-10-22T05:19:20.233Z,10.00
2022-10-22T05:21:48.301Z,9.90
2022-10-22T05:24:18.662Z,9.90
2022-10-22T05:26:50.284Z,9.90
2022-10-22T05:29:20.987Z,9.90
2022-10-22T05:31:49.169Z,9.90
2022-10-22T05:34:19.549Z,9.90
2022-10-22T05:36:47.674Z,9.90
2022-10-22T05:39:15.741Z,9.80
2022-10-22T05:41:43.808Z,9.80
2022-10-22T05:44:15.573Z,9.80
2022-10-22T05:46:44.279Z,9.80
2022-10-22T05:49:16.180Z,9.80
2022-10-22T05:51:44.294Z,9.80
2022-10-22T05:54:18.260Z,9.80
2022-10-22T05:56:48.892Z,9.80
2022-10-22T05:59:18.371Z,9.80
2022-10-22T06:01:46.517Z,9.80
2022-10-22T06:04:16.173Z,9.90
2022-10-22T06:06:46.099Z,9.80
2022-10-22T06:09:18.451Z,9.90
2022-10-22T06:11:47.109Z,9.80
2022-10-22T06:14:15.553Z,9.80
2022-10-22T06:16:45.159Z,9.80
2022-10-22T06:19:17.483Z,9.90
2022-10-22T06:21:48.627Z,9.90
2022-10-22T06:24:17.183Z,9.90
2022-10-22T06:26:45.490Z,9.90
2022-10-22T06:29:15.902Z,9.90
2022-10-22T06:31:45.383Z,9.90
2022-10-22T06:34:15.682Z,9.90
2022-10-22T06:36:45.576Z,9.90
2022-10-22T06:39:15.046Z,10.00
2022-10-22T06:41:43.337Z,10.00
2022-10-22T06:44:18.186Z,10.00
2022-10-22T06:46:49.975Z,10.00
2022-10-22T06:49:18.157Z,10.10
2022-10-22T06:51:46.688Z,10.10
2022-10-22T06:54:14.875Z,10.10
2022-10-22T06:56:45.228Z,10.20
2022-10-22T06:59:15.470Z,10.20
2022-10-22T07:01:43.569Z,10.20
2022-10-22T07:04:13.059Z,10.30
2022-10-22T07:06:41.131Z,10.40
2022-10-22T07:09:09.305Z,10.40
2022-10-22T07:11:42.308Z,10.50
2022-10-22T07:14:10.952Z,10.50
2022-10-22T07:16:39.161Z,10.60
2022-10-22T07:19:09.687Z,10.60
2022-10-22T07:21:41.435Z,10.70
2022-10-22T07:24:10.216Z,10.70
2022-10-22T07:26:38.329Z,10.80
2022-10-22T07:29:06.468Z,10.90
2022-10-22T07:31:34.554Z,11.00
2022-10-22T07:34:04.981Z,11.00
2022-10-22T07:36:33.097Z,11.10
2022-10-22T07:39:05.476Z,11.20
2022-10-22T07:41:33.704Z,11.30
2022-10-22T07:44:04.294Z,11.40
2022-10-22T07:46:35.226Z,11.50
2022-10-22T07:49:03.326Z,11.60
2022-10-22T07:51:31.420Z,11.60
2022-10-22T07:54:01.838Z,11.70
2022-10-22T07:56:31.316Z,11.80
2022-10-22T07:58:59.487Z,11.90
2022-10-22T08:01:27.769Z,12.00
2022-10-22T08:03:55.886Z,12.10
2022-10-22T08:06:23.975Z,12.20
2022-10-22T08:08:52.123Z,12.20
2022-10-22T08:11:22.630Z,12.30
2022-10-22T08:13:52.070Z,12.40
2022-10-22T08:16:20.566Z,12.50
2022-10-22T08:18:48.624Z,12.60
2022-10-22T08:21:17.388Z,12.60
2022-10-22T08:23:47.525Z,12.70
2022-10-22T08:26:15.655Z,12.80
2022-10-22T08:28:43.695Z,12.90
2022-10-22T08:31:13.519Z,13.00
2022-10-22T08:33:42.103Z,13.10
2022-10-22T08:36:10.739Z,13.20
2022-10-22T08:38:38.979Z,13.30
2022-10-22T08:41:13.656Z,13.40
2022-10-22T08:44:08.391Z,13.50
2022-10-22T08:46:53.757Z,13.60
2022-10-22T08:49:25.586Z,13.70
2022-10-22T08:51:54.276Z,13.70
2022-10-22T08:54:37.740Z,13.80
2022-10-22T08:57:23.819Z,13.80
2022-10-22T08:59:58.863Z,13.90
2022-10-22T09:02:38.509Z,14.00
2022-10-22T09:05:22.071Z,14.10
2022-10-22T09:07:53.125Z,14.20
2022-10-22T09:10:28.291Z,14.30
2022-10-22T09:12:56.426Z,14.40
2022-10-22T09:15:24.554Z,14.50
2022-10-22T09:18:04.696Z,14.60
2022-10-22T09:20:43.378Z,14.70
2022-10-22T09:23:30.387Z,14.80
2022-10-22T09:25:59.278Z,14.80
2022-10-22T09:28:27.718Z,14.90
2022-10-22T09:30:55.864Z,15.00
2022-10-22T09:33:28.577Z,15.00
2022-10-22T09:35:58.771Z,15.10
2022-10-22T09:38:28.891Z,15.10
2022-10-22T09:40:59.244Z,15.20
2022-10-22T09:43:27.681Z,15.20
2022-10-22T09:45:59.362Z,15.30
2022-10-22T09:48:34.593Z,15.30
2022-10-22T09:51:11.540Z,15.30
2022-10-22T09:53:42.658Z,15.30
2022-10-22T09:56:24.990Z,15.40
2022-10-22T09:58:53.095Z,15.40
2022-10-22T10:01:25.661Z,15.40
2022-10-22T10:04:08.406Z,15.50
2022-10-22T10:06:40.583Z,15.50
2022-10-22T10:09:16.447Z,15.50
2022-10-22T10:11:50.024Z,15.60
2022-10-22T10:14:22.591Z,15.60
2022-10-22T10:16:59.895Z,15.60
2022-10-22T10:19:59.979Z,15.60
2022-10-22T10:22:47.608Z,15.60
2022-10-22T10:25:33.468Z,15.60
2022-10-22T10:28:13.758Z,15.60
2022-10-22T10:30:50.625Z,15.60
2022-10-22T10:33:29.075Z,15.60
2022-10-22T10:36:05.918Z,15.60
2022-10-22T10:38:43.032Z,15.70
2022-10-22T10:41:27.901Z,15.70
2022-10-22T10:44:12.936Z,15.70
2022-10-22T10:46:47.444Z,15.70
2022-10-22T10:49:20.676Z,15.70
2022-10-22T10:51:59.610Z,15.70
2022-10-22T10:57:23.866Z,15.80
2022-10-22T11:00:02.956Z,15.80
2022-10-22T11:03:18.206Z,15.80
2022-10-22T11:05:53.351Z,15.80
2022-10-22T11:08:29.115Z,15.80
2022-10-22T11:11:03.885Z,15.80
2022-10-22T11:13:36.192Z,15.90
2022-10-22T11:16:12.920Z,15.90
2022-10-22T11:18:45.622Z,16.00
2022-10-22T11:21:24.338Z,16.00
2022-10-22T11:24:01.799Z,16.00
2022-10-22T11:26:38.575Z,16.00
2022-10-22T11:29:11.767Z,16.00
2022-10-22T11:31:41.082Z,16.00
2022-10-22T11:34:34.015Z,16.00
2022-10-22T11:37:03.772Z,16.00
2022-10-22T11:39:41.775Z,16.00
2022-10-22T11:42:12.694Z,16.10
2022-10-22T11:44:49.285Z,16.00
2022-10-22T11:47:25.038Z,16.10
2022-10-22T11:50:03.364Z,16.10
2022-10-22T11:52:48.675Z,16.10
2022-10-22T11:55:45.943Z,16.10
2022-10-22T11:58:32.575Z,16.10
2022-10-22T12:01:22.559Z,16.10
2022-10-22T12:03:52.801Z,16.10
2022-10-22T12:06:25.786Z,16.10
2022-10-22T12:09:00.222Z,16.10
2022-10-22T12:11:38.155Z,16.00
2022-10-22T12:14:26.603Z,16.00
2022-10-22T12:17:00.211Z,16.10
2022-10-22T12:19:33.498Z,16.00
2022-10-22T12:22:12.613Z,16.00
2022-10-22T12:24:42.680Z,16.10
2022-10-22T12:27:22.611Z,16.00
2022-10-22T12:29:56.043Z,15.90
2022-10-22T12:32:35.686Z,15.90
2022-10-22T12:35:07.876Z,15.80
2022-10-22T12:37:37.009Z,15.80
2022-10-22T12:40:18.188Z,15.80
2022-10-22T12:42:52.721Z,15.70
2022-10-22T12:45:24.703Z,15.70
2022-10-22T12:47:57.215Z,15.60
2022-10-22T12:50:37.458Z,15.60
2022-10-22T12:53:13.752Z,15.60
2022-10-22T12:55:42.075Z,15.60
2022-10-22T12:58:18.584Z,15.60
2022-10-22T13:00:48.332Z,15.60
2022-10-22T13:03:27.825Z,15.70
2022-10-22T13:05:56.036Z,15.70
2022-10-22T13:08:28.267Z,15.70
2022-10-22T13:10:56.600Z,15.80
2022-10-22T13:13:34.032Z,15.80
2022-10-22T13:16:19.882Z,15.90
2022-10-22T13:18:49.173Z,16.00
2022-10-22T13:21:26.405Z,16.00
2022-10-22T13:23:56.703Z,16.00
2022-10-22T13:26:31.357Z,16.10
2022-10-22T13:29:10.200Z,16.10
2022-10-22T13:31:38.597Z,16.20
2022-10-22T13:34:11.784Z,16.20
2022-10-22T13:36:42.103Z,16.30
2022-10-22T13:39:17.323Z,16.30
2022-10-22T13:41:45.428Z,16.40
2022-10-22T13:44:14.901Z,16.40
2022-10-22T13:46:45.251Z,16.40
2022-10-22T13:49:16.405Z,16.40
2022-10-22T13:51:45.152Z,16.40
2022-10-22T13:54:18.094Z,16.40
2022-10-22T13:56:46.539Z,16.40
2022-10-22T13:59:18.410Z,16.40
2022-10-22T14:01:52.531Z,16.40
2022-10-22T14:04:45.595Z,16.40
2022-10-22T14:07:15.717Z,16.50
2022-10-22T14:09:44.516Z,16.50
2022-10-22T14:12:14.466Z,16.60
2022-10-22T14:14:44.036Z,16.70
2022-10-22T14:17:16.788Z,16.70
2022-10-22T14:19:46.787Z,16.70
2022-10-22T14:22:16.294Z,16.70
2022-10-22T14:24:47.297Z,16.60
2022-10-22T14:27:16.868Z,16.60
2022-10-22T14:29:48.510Z,16.50
2022-10-22T14:32:20.246Z,16.50
2022-10-22T14:34:48.515Z,16.50
2022-10-22T14:37:19.122Z,16.50
2022-10-22T14:39:52.584Z,16.50
2022-10-22T14:42:20.897Z,16.40
2022-10-22T14:44:50.405Z,16.40
2022-10-22T14:47:18.659Z,16.40
2022-10-22T14:49:49.114Z,16.40
2022-10-22T14:52:20.206Z,16.50
2022-10-22T14:54:48.925Z,16.50
2022-10-22T14:57:19.422Z,16.50
2022-10-22T14:59:47.597Z,16.50
2022-10-22T15:02:17.176Z,16.50
2022-10-22T15:04:46.631Z,16.50
2022-10-22T15:07:18.984Z,16.50
2022-10-22T15:09:47.353Z,16.50
2022-10-22T15:12:15.530Z,16.50
2022-10-22T15:14:43.709Z,16.50
2022-10-22T15:17:11.849Z,16.50
2022-10-22T15:19:44.361Z,16.50
2022-10-22T15:22:13.218Z,16.40
2022-10-22T15:24:43.771Z,16.40
2022-10-22T15:27:14.292Z,16.40
2022-10-22T15:29:43.695Z,16.30
2022-10-22T15:32:14.193Z,16.30
2022-10-22T15:34:43.686Z,16.20
2022-10-22T15:37:13.864Z,16.20
2022-10-22T15:39:42.163Z,16.10
2022-10-22T15:42:12.421Z,16.10
2022-10-22T15:44:41.151Z,16.10
2022-10-22T15:47:09.723Z,16.00
2022-10-22T15:49:41.682Z,15.90
2022-10-22T15:52:13.723Z,15.90
2022-10-22T15:54:43.815Z,15.80
2022-10-22T15:57:11.930Z,15.80
2022-10-22T15:59:40.093Z,15.80
2022-10-22T16:02:10.424Z,15.70
2022-10-22T16:04:41.744Z,15.70
2022-10-22T16:07:09.902Z,15.60
2022-10-22T16:09:39.506Z,15.60
2022-10-22T16:12:10.774Z,15.50
2022-10-22T16:14:44.588Z,15.50
2022-10-22T16:17:30.642Z,15.50
2022-10-22T16:19:59.373Z,15.40
2022-10-22T16:22:27.622Z,15.30
2022-10-22T16:38:15.504Z,15.20
2022-10-22T16:40:43.600Z,15.20
2022-10-22T16:43:12.028Z,15.10
2022-10-22T16:45:40.212Z,15.10
2022-10-22T16:48:08.343Z,15.00
2022-10-22T16:50:40.479Z,15.00
2022-10-22T16:53:08.605Z,14.90
2022-10-22T16:55:38.675Z,14.90
2022-10-22T16:58:09.176Z,14.80
2022-10-22T17:00:39.746Z,14.70
2022-10-22T17:03:12.467Z,14.70
2022-10-22T17:05:40.620Z,14.60
2022-10-22T17:08:08.702Z,14.60
2022-10-22T17:10:41.523Z,14.60
2022-10-22T17:13:09.696Z,14.50
2022-10-22T17:15:40.467Z,14.50
2022-10-22T17:18:10.669Z,14.50
2022-10-22T17:20:42.327Z,14.40
2022-10-22T17:23:10.542Z,14.40
2022-10-22T17:25:44.655Z,14.30
2022-10-22T17:28:13.320Z,14.30
2022-10-22T17:30:41.799Z,14.30
2022-10-22T17:33:10.400Z,14.20
2022-10-22T17:35:43.914Z,14.20
2022-10-22T17:38:11.983Z,14.20
2022-10-22T17:40:40.203Z,14.10
2022-10-22T17:43:12.104Z,14.10
2022-10-22T17:45:40.389Z,14.10
2022-10-22T17:48:10.100Z,14.00
2022-10-22T17:50:41.873Z,14.00
2022-10-22T17:53:10.565Z,13.90
2022-10-22T17:55:41.542Z,13.90
2022-10-22T17:58:11.004Z,13.80
2022-10-22T18:00:39.227Z,13.80
2022-10-22T18:03:07.375Z,13.70
2022-10-22T18:05:36.326Z,13.70
2022-10-22T18:08:07.899Z,13.70
2022-10-22T18:10:40.800Z,13.70
2022-10-22T18:13:13.100Z,13.60
2022-10-22T18:15:41.168Z,13.50
2022-10-22T18:18:09.275Z,13.50
2022-10-22T18:20:37.367Z,13.50
2022-10-22T18:23:05.601Z,13.40
2022-10-22T18:28:12.997Z,13.30
2022-10-22T18:30:41.893Z,13.30
2022-10-22T18:33:13.804Z,13.20
2022-10-22T18:35:42.200Z,13.10
2022-10-22T18:38:12.371Z,13.10
2022-10-22T18:40:46.593Z,13.00
2022-10-22T18:43:16.430Z,13.00
2022-10-22T18:45:48.335Z,12.90
2022-10-22T18:48:18.453Z,12.90
2022-10-22T18:50:48.069Z,12.90
2022-10-22T18:53:17.327Z,12.80
2022-10-22T18:55:46.050Z,12.80
2022-10-22T18:58:15.618Z,12.70
2022-10-22T19:00:43.775Z,12.70
2022-10-22T19:03:12.020Z,12.70
2022-10-22T19:05:46.300Z,12.60
2022-10-22T19:08:17.036Z,12.60
2022-10-22T19:10:45.387Z,12.60
2022-10-22T19:13:18.640Z,12.50
2022-10-22T19:15:46.802Z,12.50
2022-10-22T19:18:16.154Z,12.40
2022-10-22T19:20:45.168Z,12.40
2022-10-22T19:23:19.892Z,12.40
2022-10-22T19:26:01.404Z,12.40
2022-10-22T19:28:31.012Z,12.30
2022-10-22T19:31:01.506Z,12.30
2022-10-22T19:33:29.686Z,12.30
2022-10-22T19:35:57.938Z,12.30
2022-10-22T19:38:29.657Z,12.20
2022-10-22T19:40:57.901Z,12.20
2022-10-22T19:43:26.475Z,12.20
2022-10-22T19:45:58.364Z,12.10
2022-10-22T19:48:28.701Z,12.10
2022-10-22T19:51:02.829Z,12.10
2022-10-22T19:53:31.265Z,12.00
2022-10-22T19:55:59.736Z,12.00
2022-10-22T19:58:29.949Z,12.00
2022-10-22T20:01:05.356Z,11.90
2022-10-22T20:03:36.844Z,11.90
2022-10-22T20:06:05.641Z,11.90
2022-10-22T20:08:35.955Z,11.90
2022-10-22T20:11:04.775Z,11.80
2022-10-22T20:13:33.236Z,11.80
2022-10-22T20:16:06.425Z,11.80
2022-10-22T20:18:34.892Z,11.70
2022-10-22T20:21:06.046Z,11.80
2022-10-22T20:23:41.840Z,11.70
2022-10-22T20:26:10.365Z,11.70
2022-10-22T20:28:39.502Z,11.60
2022-10-22T20:31:13.957Z,11.60
2022-10-22T20:33:42.153Z,11.60
2022-10-22T20:36:16.846Z,11.60
2022-10-22T20:38:46.635Z,11.60
2022-10-22T20:41:17.801Z,11.60
2022-10-22T20:43:46.298Z,11.50
2022-10-22T20:46:19.042Z,11.50
2022-10-22T20:48:47.282Z,11.50
2022-10-22T20:51:17.691Z,11.50
2022-10-22T20:53:45.958Z,11.50
2022-10-22T20:56:17.511Z,11.50
2022-10-22T20:58:48.990Z,11.50
2022-10-22T21:01:23.836Z,11.50
2022-10-22T21:03:53.495Z,11.50
2022-10-22T21:06:23.736Z,11.50
2022-10-22T21:08:53.124Z,11.50
2022-10-22T21:11:24.179Z,11.40
2022-10-22T21:13:54.370Z,11.40
2022-10-22T21:16:26.056Z,11.40
2022-10-22T21:18:54.242Z,11.40
2022-10-22T21:21:22.630Z,11.40
2022-10-22T21:23:51.227Z,11.30
2022-10-22T21:26:20.038Z,11.40
2022-10-22T21:28:48.745Z,11.40
2022-10-22T21:31:22.101Z,11.40
2022-10-22T21:33:51.982Z,11.40
2022-10-22T21:36:24.203Z,11.40
2022-10-22T21:38:52.665Z,11.40
2022-10-22T21:41:23.154Z,11.40
2022-10-22T21:43:53.369Z,11.30
2022-10-22T21:46:25.526Z,11.30
2022-10-22T21:48:56.525Z,11.30
2022-10-22T21:51:27.336Z,11.30
2022-10-22T21:53:55.845Z,11.30
2022-10-22T21:56:26.294Z,11.30
2022-10-22T21:58:54.854Z,11.20
2022-10-22T22:01:25.745Z,11.20
2022-10-22T22:03:55.804Z,11.20
2022-10-22T22:06:28.291Z,11.20
2022-10-22T22:09:00.458Z,11.20
2022-10-22T22:11:29.344Z,11.20
2022-10-22T22:14:01.312Z,11.20
2022-10-22T22:16:31.252Z,11.20
2022-10-22T22:19:06.338Z,11.20
2022-10-22T22:21:35.276Z,11.20
2022-10-22T22:24:04.123Z,11.20
2022-10-22T22:26:32.326Z,11.20
2022-10-22T22:29:02.825Z,11.30
2022-10-22T22:31:32.392Z,11.30
2022-10-22T22:34:01.475Z,11.30
2022-10-22T22:36:35.259Z,11.30
2022-10-22T22:39:03.647Z,11.30
2022-10-22T22:41:31.963Z,11.30
2022-10-22T22:44:02.679Z,11.30
2022-10-22T22:46:30.885Z,11.30
2022-10-22T22:49:01.389Z,11.30
2022-10-22T22:51:33.486Z,11.30
2022-10-22T22:54:02.275Z,11.30
2022-10-22T22:56:32.037Z,11.40
2022-10-22T22:59:02.490Z,11.30
2022-10-22T23:01:32.071Z,11.30
2022-10-22T23:04:01.981Z,11.40
2022-10-22T23:06:33.490Z,11.40
2022-10-22T23:09:05.288Z,11.40
2022-10-22T23:11:33.571Z,11.40
2022-10-22T23:14:03.459Z,11.40
2022-10-22T23:16:33.705Z,11.40
2022-10-22T23:19:05.293Z,11.40
2022-10-22T23:21:37.081Z,11.40
2022-10-22T23:24:07.650Z,11.40
2022-10-22T23:26:38.720Z,11.40
2022-10-22T23:29:08.602Z,11.40
2022-10-22T23:31:39.131Z,11.40
2022-10-22T23:34:08.295Z,11.40
2022-10-22T23:36:39.198Z,11.40
2022-10-22T23:39:12.208Z,11.40
2022-10-22T23:41:40.796Z,11.40
2022-10-22T23:44:10.107Z,11.40
2022-10-22T23:46:41.177Z,11.40
2022-10-22T23:49:10.923Z,11.40
2022-10-22T23:51:41.278Z,11.40
2022-10-22T23:54:12.008Z,11.40
2022-10-22T23:56:42.526Z,11.40
